createdAt,value
2017-05-04T00:01:15.525Z,93.20
2017-05-04T00:03:44.613Z,93.40
2017-05-04T00:06:13.661Z,93.50
2017-05-04T00:08:42.724Z,93.30
2017-05-04T00:11:11.790Z,93.20
2017-05-04T00:13:40.840Z,93.20
2017-05-04T00:16:09.917Z,93.10
2017-05-04T00:18:38.957Z,93.10
2017-05-04T00:21:08.865Z,92.80
2017-05-04T00:23:38.657Z,93.10
2017-05-04T00:26:07.717Z,92.90
2017-05-04T00:28:36.771Z,92.70
2017-05-04T00:31:06.573Z,92.50
2017-05-04T00:33:35.684Z,92.40
2017-05-04T00:36:04.775Z,92.30
2017-05-04T00:38:34.588Z,92.10
2017-05-04T00:41:04.380Z,92.00
2017-05-04T00:43:33.430Z,92.00
2017-05-04T00:46:02.505Z,92.20
2017-05-04T00:48:31.554Z,91.80
2017-05-04T00:51:00.597Z,92.10
2017-05-04T00:53:29.660Z,91.90
2017-05-04T00:55:58.765Z,91.90
2017-05-04T00:58:28.673Z,92.00
2017-05-04T01:00:58.488Z,92.30
2017-05-04T01:03:28.285Z,92.30
2017-05-04T01:05:57.324Z,92.50
2017-05-04T01:08:26.388Z,92.80
2017-05-04T01:10:56.182Z,93.00
2017-05-04T01:13:25.245Z,93.10
2017-05-04T01:15:54.293Z,92.90
2017-05-04T01:18:24.099Z,92.90
2017-05-04T01:20:53.881Z,93.10
2017-05-04T01:23:23.009Z,93.30
2017-05-04T01:25:52.801Z,93.10
2017-05-04T01:28:21.889Z,93.10
2017-05-04T01:30:50.938Z,93.00
2017-05-04T01:33:19.991Z,92.90
2017-05-04T01:35:49.044Z,93.00
2017-05-04T01:38:18.093Z,93.00
2017-05-04T01:40:47.912Z,93.00
2017-05-04T01:43:17.689Z,92.70
2017-05-04T01:45:46.927Z,92.90
2017-05-04T01:48:15.985Z,93.00
2017-05-04T01:50:45.058Z,92.90
2017-05-04T01:53:14.096Z,92.90
2017-05-04T01:55:43.897Z,93.20
2017-05-04T01:58:13.693Z,92.70
2017-05-04T02:00:42.773Z,92.80
2017-05-04T02:03:11.801Z,93.10
2017-05-04T02:05:41.607Z,93.10
2017-05-04T02:08:10.728Z,93.00
2017-05-04T02:10:40.519Z,93.10
2017-05-04T02:13:09.556Z,92.90
2017-05-04T02:15:38.626Z,92.90
2017-05-04T02:18:07.670Z,93.00
2017-05-04T02:20:36.817Z,93.10
2017-05-04T02:23:06.597Z,93.10
2017-05-04T02:25:35.723Z,93.00
2017-05-04T02:28:05.500Z,93.00
2017-05-04T02:30:34.545Z,93.10
2017-05-04T02:33:03.609Z,93.20
2017-05-04T02:35:33.388Z,93.20
2017-05-04T02:38:02.461Z,92.80
2017-05-04T02:40:31.606Z,92.90
2017-05-04T02:43:01.405Z,93.30
2017-05-04T02:45:30.456Z,92.80
2017-05-04T02:47:59.509Z,93.10
2017-05-04T02:50:29.292Z,92.90
2017-05-04T02:52:58.369Z,92.90
2017-05-04T02:55:27.417Z,92.80
2017-05-04T02:57:57.208Z,92.80
2017-05-04T03:00:26.270Z,92.70
2017-05-04T03:02:55.331Z,92.70
2017-05-04T03:05:24.386Z,92.70
2017-05-04T03:07:53.428Z,92.60
2017-05-04T03:10:22.934Z,92.50
2017-05-04T03:12:51.980Z,92.60
2017-05-04T03:15:21.085Z,92.70
2017-05-04T03:17:50.865Z,92.80
2017-05-04T03:20:19.929Z,92.70
2017-05-04T03:22:48.983Z,92.70
2017-05-04T03:25:18.766Z,92.50
2017-05-04T03:27:47.843Z,92.60
2017-05-04T03:30:16.880Z,92.70
2017-05-04T03:32:45.946Z,92.90
2017-05-04T03:35:14.986Z,92.90
2017-05-04T03:37:44.058Z,92.70
2017-05-04T03:40:13.185Z,92.80
2017-05-04T03:42:42.984Z,92.70
2017-05-04T03:45:12.775Z,92.80
2017-05-04T03:47:41.837Z,92.90
2017-05-04T03:50:10.877Z,92.60
2017-05-04T03:52:40.684Z,92.90
2017-05-04T03:55:09.726Z,92.90
2017-05-04T03:57:38.787Z,92.90
2017-05-04T04:00:08.573Z,92.60
2017-05-04T04:02:37.692Z,92.70
2017-05-04T04:05:07.472Z,92.50
2017-05-04T04:07:36.585Z,92.60
2017-05-04T04:10:06.380Z,92.50
2017-05-04T04:12:35.473Z,92.70
2017-05-04T04:15:04.527Z,92.60
2017-05-04T04:17:33.569Z,92.60
2017-05-04T04:20:02.633Z,92.50
2017-05-04T04:22:31.678Z,92.40
2017-05-04T04:25:01.500Z,92.70
2017-05-04T04:27:31.274Z,92.60
2017-05-04T04:30:00.392Z,92.40
2017-05-04T04:32:30.181Z,92.70
2017-05-04T04:34:59.251Z,92.60
2017-05-04T04:37:28.293Z,92.60
2017-05-04T04:39:57.349Z,92.70
2017-05-04T04:42:26.400Z,92.40
2017-05-04T04:44:56.192Z,92.40
2017-05-04T04:47:26.017Z,92.50
2017-05-04T04:49:55.806Z,92.60
2017-05-04T04:52:24.841Z,92.10
2017-05-04T04:54:53.886Z,92.00
2017-05-04T04:57:22.954Z,91.70
2017-05-04T04:59:51.992Z,91.90
2017-05-04T05:02:21.792Z,91.60
2017-05-04T05:04:50.834Z,91.70
2017-05-04T05:07:19.890Z,91.60
2017-05-04T05:09:49.673Z,91.60
2017-05-04T05:12:18.733Z,91.40
2017-05-04T05:14:47.773Z,91.60
2017-05-04T05:17:16.837Z,91.10
2017-05-04T05:19:45.873Z,90.80
2017-05-04T05:22:15.680Z,90.80
2017-05-04T05:24:44.785Z,91.00
2017-05-04T05:27:14.570Z,91.20
2017-05-04T05:29:43.633Z,90.90
2017-05-04T05:32:12.678Z,90.80
2017-05-04T05:34:41.745Z,90.70
2017-05-04T05:37:10.787Z,90.50
2017-05-04T05:39:40.577Z,90.80
2017-05-04T05:42:09.623Z,90.80
2017-05-04T05:44:38.769Z,90.40
2017-05-04T05:47:08.551Z,90.40
2017-05-04T05:49:37.608Z,90.60
2017-05-04T05:52:06.692Z,90.80
2017-05-04T05:54:36.475Z,90.60
2017-05-04T05:57:05.521Z,90.20
2017-05-04T05:59:34.602Z,89.90
2017-05-04T06:02:03.669Z,90.10
2017-05-04T06:04:33.477Z,90.30
2017-05-04T06:07:02.552Z,89.90
2017-05-04T06:09:31.633Z,89.50
2017-05-04T06:12:00.659Z,89.80
2017-05-04T06:14:29.699Z,89.50
2017-05-04T06:16:58.826Z,89.30
2017-05-04T06:19:27.861Z,89.40
2017-05-04T06:21:56.927Z,89.90
2017-05-04T06:24:26.030Z,88.60
2017-05-04T06:26:55.098Z,88.90
2017-05-04T06:29:24.240Z,88.70
2017-05-04T06:31:54.051Z,88.60
2017-05-04T06:34:23.845Z,89.70
2017-05-04T06:36:53.178Z,86.70
2017-05-04T06:39:22.250Z,86.80
2017-05-04T06:41:52.089Z,87.60
2017-05-04T06:44:21.129Z,87.20
2017-05-04T06:46:50.198Z,87.10
2017-05-04T06:49:19.239Z,86.60
2017-05-04T06:51:49.013Z,86.00
2017-05-04T06:54:18.079Z,85.10
2017-05-04T06:56:47.127Z,84.00
2017-05-04T06:59:16.193Z,83.20
2017-05-04T07:01:45.262Z,82.10
2017-05-04T07:04:14.325Z,81.90
2017-05-04T07:06:44.118Z,82.90
2017-05-04T07:09:13.193Z,81.80
2017-05-04T07:11:42.242Z,82.00
2017-05-04T07:14:11.738Z,80.70
2017-05-04T07:16:41.529Z,79.30
2017-05-04T07:19:10.621Z,79.40
2017-05-04T07:21:40.443Z,79.30
2017-05-04T07:24:10.257Z,77.90
2017-05-04T07:26:39.293Z,77.20
2017-05-04T07:29:08.334Z,76.80
2017-05-04T07:31:37.417Z,74.40
2017-05-04T07:34:06.551Z,73.90
2017-05-04T07:36:36.342Z,73.70
2017-05-04T07:39:05.398Z,73.70
2017-05-04T07:41:34.546Z,71.60
2017-05-04T07:44:04.322Z,71.10
2017-05-04T07:46:33.385Z,69.90
2017-05-04T07:49:02.426Z,68.40
2017-05-04T07:51:31.506Z,68.40
2017-05-04T07:54:00.539Z,66.90
2017-05-04T07:56:30.348Z,65.40
2017-05-04T07:59:00.160Z,65.60
2017-05-04T08:01:29.212Z,63.30
2017-05-04T08:03:58.261Z,62.00
2017-05-04T08:06:28.056Z,60.60
2017-05-04T08:08:57.831Z,63.50
2017-05-04T08:11:26.954Z,63.40
2017-05-04T08:13:56.742Z,64.10
2017-05-04T08:16:25.800Z,65.00
2017-05-04T08:18:54.881Z,65.50
2017-05-04T08:21:23.946Z,66.50
2017-05-04T08:23:52.996Z,66.70
2017-05-04T08:26:22.045Z,67.20
2017-05-04T08:28:51.861Z,67.40
2017-05-04T08:31:21.640Z,67.80
2017-05-04T08:33:50.705Z,68.00
2017-05-04T08:36:19.761Z,69.30
2017-05-04T08:38:49.675Z,69.50
2017-05-04T08:41:18.697Z,69.20
2017-05-04T08:43:47.850Z,68.20
2017-05-04T08:46:16.960Z,68.50
2017-05-04T08:48:46.912Z,68.40
2017-05-04T08:51:15.941Z,68.30
2017-05-04T08:53:45.041Z,67.30
2017-05-04T08:56:14.132Z,69.10
2017-05-04T08:58:43.202Z,69.00
2017-05-04T09:01:12.253Z,68.30
2017-05-04T09:03:42.400Z,68.10
2017-05-04T09:06:11.495Z,66.20
2017-05-04T09:08:40.532Z,65.20
2017-05-04T09:11:09.612Z,63.30
2017-05-04T09:13:38.649Z,62.90
2017-05-04T09:16:08.453Z,61.90
2017-05-04T09:18:38.241Z,61.20
2017-05-04T09:21:07.297Z,62.40
2017-05-04T09:23:36.351Z,62.40
2017-05-04T09:26:06.149Z,64.00
2017-05-04T09:28:35.189Z,64.60
2017-05-04T09:31:04.358Z,65.40
2017-05-04T09:33:33.393Z,64.50
2017-05-04T09:36:02.449Z,65.50
2017-05-04T09:38:31.492Z,66.00
2017-05-04T09:41:00.573Z,66.40
2017-05-04T09:43:29.657Z,67.00
2017-05-04T09:45:58.693Z,66.90
2017-05-04T09:48:27.757Z,67.20
2017-05-04T09:50:56.814Z,67.10
2017-05-04T09:53:26.610Z,67.50
2017-05-04T09:55:56.396Z,68.70
2017-05-04T09:58:25.562Z,68.90
2017-05-04T10:00:54.625Z,69.20
2017-05-04T10:03:24.437Z,68.70
2017-05-04T10:05:54.252Z,68.70
2017-05-04T10:08:23.286Z,69.00
2017-05-04T10:10:52.509Z,69.50
2017-05-04T10:13:21.570Z,70.10
2017-05-04T10:15:50.633Z,70.00
2017-05-04T10:18:20.428Z,70.80
2017-05-04T10:20:50.209Z,70.20
2017-05-04T10:23:19.276Z,70.90
2017-05-04T10:25:48.341Z,70.60
2017-05-04T10:28:18.147Z,70.60
2017-05-04T10:30:47.932Z,70.00
2017-05-04T10:33:16.990Z,70.00
2017-05-04T10:35:46.042Z,69.80
2017-05-04T10:38:15.821Z,69.70
2017-05-04T10:40:44.949Z,68.60
2017-05-04T10:43:14.728Z,69.70
2017-05-04T10:45:43.781Z,69.80
2017-05-04T10:48:12.843Z,70.30
2017-05-04T10:50:41.912Z,70.40
2017-05-04T10:53:10.945Z,70.20
2017-05-04T10:55:40.010Z,69.90
2017-05-04T10:58:09.446Z,69.30
2017-05-04T11:00:39.361Z,69.50
2017-05-04T11:03:09.131Z,68.10
2017-05-04T11:05:38.259Z,69.00
2017-05-04T11:08:08.116Z,68.90
2017-05-04T11:10:37.196Z,68.30
2017-05-04T11:13:06.265Z,68.40
2017-05-04T11:15:36.073Z,67.80
2017-05-04T11:18:05.880Z,67.00
2017-05-04T11:20:35.729Z,64.80
2017-05-04T11:23:04.769Z,64.20
2017-05-04T11:25:33.846Z,64.10
2017-05-04T11:28:02.974Z,63.40
2017-05-04T11:30:32.753Z,63.10
2017-05-04T11:33:01.998Z,62.90
2017-05-04T11:35:31.765Z,61.60
2017-05-04T11:38:00.821Z,62.10
2017-05-04T11:40:29.860Z,62.90
2017-05-04T11:42:58.945Z,62.50
2017-05-04T11:45:28.079Z,61.60
2017-05-04T11:47:57.901Z,61.10
2017-05-04T11:50:26.992Z,60.20
2017-05-04T11:52:56.804Z,59.80
2017-05-04T11:55:25.838Z,59.90
2017-05-04T11:57:54.921Z,59.80
2017-05-04T12:00:23.952Z,59.60
2017-05-04T12:02:52.997Z,58.70
2017-05-04T12:05:22.061Z,58.70
2017-05-04T12:07:51.837Z,58.80
2017-05-04T12:10:20.966Z,58.80
2017-05-04T12:12:50.757Z,59.20
2017-05-04T12:15:19.889Z,60.00
2017-05-04T12:17:48.917Z,60.10
2017-05-04T12:20:17.982Z,61.20
2017-05-04T12:22:47.032Z,62.80
2017-05-04T12:25:16.109Z,63.40
2017-05-04T12:27:49.915Z,63.20
2017-05-04T12:30:19.057Z,62.40
2017-05-04T12:32:48.862Z,62.30
2017-05-04T12:35:18.661Z,63.20
2017-05-04T12:37:47.714Z,62.90
2017-05-04T12:40:16.793Z,62.60
2017-05-04T12:42:45.837Z,63.60
2017-05-04T12:45:14.880Z,63.70
2017-05-04T12:47:44.065Z,64.00
2017-05-04T12:50:13.168Z,64.50
2017-05-04T12:52:42.952Z,66.30
2017-05-04T12:55:11.993Z,67.50
2017-05-04T12:57:41.162Z,68.10
2017-05-04T13:00:11.141Z,68.90
2017-05-04T13:02:40.257Z,69.80
2017-05-04T13:05:10.068Z,70.00
2017-05-04T13:07:39.123Z,69.40
2017-05-04T13:10:08.276Z,69.60
2017-05-04T13:12:37.313Z,69.50
2017-05-04T13:15:06.370Z,67.70
2017-05-04T13:17:35.441Z,66.70
2017-05-04T13:20:05.255Z,66.30
2017-05-04T13:22:35.169Z,66.30
2017-05-04T13:25:04.960Z,65.50
2017-05-04T13:27:34.090Z,66.00
2017-05-04T13:30:03.877Z,66.20
2017-05-04T13:32:32.982Z,65.20
2017-05-04T13:35:02.854Z,65.40
2017-05-04T13:37:31.921Z,65.30
2017-05-04T13:40:00.984Z,64.80
2017-05-04T13:42:30.024Z,65.10
2017-05-04T13:44:59.169Z,64.30
2017-05-04T13:47:28.209Z,64.80
2017-05-04T13:49:57.279Z,64.70
2017-05-04T13:52:27.141Z,64.70
2017-05-04T13:54:56.216Z,65.00
2017-05-04T13:57:25.256Z,65.50
2017-05-04T13:59:54.357Z,65.20
2017-05-04T14:02:24.172Z,64.20
2017-05-04T14:04:53.984Z,63.00
2017-05-04T14:07:23.766Z,63.20
2017-05-04T14:09:52.810Z,64.30
2017-05-04T14:12:21.876Z,65.00
2017-05-04T14:14:50.926Z,65.60
2017-05-04T14:17:20.088Z,66.40
2017-05-04T14:19:49.110Z,67.00
2017-05-04T14:22:18.278Z,68.10
2017-05-04T14:24:48.041Z,68.30
2017-05-04T14:27:17.099Z,68.50
2017-05-04T14:29:46.129Z,68.00
2017-05-04T14:32:15.190Z,67.80
2017-05-04T14:34:44.240Z,67.50
2017-05-04T14:37:13.337Z,67.30
2017-05-04T14:39:42.378Z,68.60
2017-05-04T14:42:11.434Z,68.50
2017-05-04T14:44:41.258Z,68.60
2017-05-04T14:47:11.053Z,69.30
2017-05-04T14:49:40.884Z,68.30
2017-05-04T14:52:10.670Z,68.60
2017-05-04T14:54:39.733Z,68.50
2017-05-04T14:57:08.769Z,68.60
2017-05-04T14:59:38.569Z,68.20
2017-05-04T15:02:07.603Z,67.60
2017-05-04T15:04:36.677Z,68.10
2017-05-04T15:07:06.465Z,68.00
2017-05-04T15:09:35.514Z,68.80
2017-05-04T15:12:04.553Z,69.40
2017-05-04T15:14:33.617Z,68.90
2017-05-04T15:17:02.767Z,69.00
2017-05-04T15:19:32.585Z,69.40
2017-05-04T15:22:02.377Z,70.40
2017-05-04T15:24:31.409Z,70.50
2017-05-04T15:27:00.488Z,70.20
2017-05-04T15:29:30.254Z,70.40
2017-05-04T15:31:59.310Z,70.70
2017-05-04T15:34:28.352Z,70.70
2017-05-04T15:36:57.416Z,71.80
2017-05-04T15:39:26.492Z,72.80
2017-05-04T15:41:55.537Z,72.50
2017-05-04T15:44:24.589Z,72.40
2017-05-04T15:46:53.654Z,72.30
2017-05-04T15:49:23.437Z,71.50
2017-05-04T15:51:52.497Z,71.90
2017-05-04T15:54:21.547Z,72.30
2017-05-04T15:56:51.351Z,73.00
2017-05-04T15:59:20.766Z,72.60
2017-05-04T16:01:50.685Z,73.60
2017-05-04T16:04:19.743Z,74.00
2017-05-04T16:06:48.830Z,74.20
2017-05-04T16:09:17.880Z,74.20
2017-05-04T16:11:46.932Z,75.30
2017-05-04T16:14:16.038Z,74.10
2017-05-04T16:16:45.855Z,75.90
2017-05-04T16:19:15.677Z,74.90
2017-05-04T16:21:45.478Z,75.20
2017-05-04T16:24:14.790Z,74.70
2017-05-04T16:26:44.574Z,74.50
2017-05-04T16:29:13.697Z,75.10
2017-05-04T16:31:42.740Z,74.90
2017-05-04T16:34:11.818Z,76.00
2017-05-04T16:36:40.981Z,76.30
2017-05-04T16:39:10.071Z,76.00
2017-05-04T16:41:39.861Z,75.20
2017-05-04T16:44:08.910Z,75.00
2017-05-04T16:46:37.995Z,76.10
2017-05-04T16:49:07.041Z,75.90
2017-05-04T16:51:36.116Z,74.60
2017-05-04T16:54:05.182Z,75.40
2017-05-04T16:56:34.271Z,74.80
2017-05-04T16:59:03.337Z,75.00
2017-05-04T17:01:33.150Z,75.90
2017-05-04T17:04:03.060Z,75.40
2017-05-04T17:06:32.985Z,75.10
2017-05-04T17:09:02.808Z,76.30
2017-05-04T17:11:31.868Z,76.00
2017-05-04T17:14:00.925Z,76.20
2017-05-04T17:16:29.987Z,76.30
2017-05-04T17:18:59.033Z,76.10
2017-05-04T17:21:28.091Z,77.20
2017-05-04T17:23:57.137Z,77.50
2017-05-04T17:26:27.135Z,77.00
2017-05-04T17:28:56.381Z,76.60
2017-05-04T17:31:26.293Z,77.50
2017-05-04T17:33:55.361Z,77.80
2017-05-04T17:36:24.484Z,78.10
2017-05-04T17:38:54.280Z,78.00
2017-05-04T17:41:24.108Z,78.60
2017-05-04T17:43:53.921Z,78.80
2017-05-04T17:46:23.692Z,79.40
2017-05-04T17:48:52.744Z,79.70
2017-05-04T17:51:22.066Z,79.50
2017-05-04T17:53:51.222Z,79.40
2017-05-04T17:56:21.062Z,79.20
2017-05-04T17:58:50.128Z,79.50
2017-05-04T18:01:19.940Z,79.40
2017-05-04T18:03:49.733Z,79.30
2017-05-04T18:06:18.842Z,78.90
2017-05-04T18:08:48.685Z,79.10
2017-05-04T18:11:17.761Z,79.40
2017-05-04T18:13:47.565Z,79.80
2017-05-04T18:16:16.629Z,80.30
2017-05-04T18:18:45.675Z,80.10
2017-05-04T18:21:14.733Z,80.10
2017-05-04T18:23:44.559Z,80.30
2017-05-04T18:26:14.361Z,80.00
2017-05-04T18:28:44.153Z,79.20
2017-05-04T18:31:13.282Z,79.50
2017-05-04T18:33:43.244Z,78.70
2017-05-04T18:36:12.313Z,79.10
2017-05-04T18:38:41.354Z,79.10
2017-05-04T18:41:10.422Z,79.30
2017-05-04T18:43:39.495Z,78.90
2017-05-04T18:46:08.581Z,78.60
2017-05-04T18:48:37.633Z,78.60
2017-05-04T18:51:06.756Z,78.90
2017-05-04T18:53:36.560Z,79.90
2017-05-04T18:56:05.686Z,79.20
2017-05-04T18:58:34.842Z,79.70
2017-05-04T19:01:03.957Z,79.40
2017-05-04T19:03:33.762Z,80.10
2017-05-04T19:06:02.821Z,79.60
2017-05-04T19:08:31.883Z,79.20
2017-05-04T19:11:01.005Z,79.30
2017-05-04T19:13:30.073Z,78.30
2017-05-04T19:15:59.141Z,78.30
2017-05-04T19:18:28.208Z,79.80
2017-05-04T19:20:57.261Z,79.20
2017-05-04T19:23:26.429Z,78.90
2017-05-04T19:25:55.472Z,78.90
2017-05-04T19:28:24.548Z,79.50
2017-05-04T19:30:53.609Z,79.40
2017-05-04T19:33:22.717Z,80.00
2017-05-04T19:35:51.786Z,80.10
2017-05-04T19:38:21.610Z,79.70
2017-05-04T19:40:50.714Z,79.60
2017-05-04T19:43:19.897Z,79.30
2017-05-04T19:45:49.699Z,79.00
2017-05-04T19:48:19.501Z,79.30
2017-05-04T19:50:48.571Z,79.30
2017-05-04T19:53:17.647Z,79.90
2017-05-04T19:55:46.694Z,79.20
2017-05-04T19:58:16.494Z,79.70
2017-05-04T20:00:45.531Z,80.30
2017-05-04T20:03:14.581Z,80.80
2017-05-04T20:05:43.717Z,81.30
2017-05-04T20:08:12.901Z,81.90
2017-05-04T20:10:41.917Z,81.50
2017-05-04T20:13:10.977Z,81.90
2017-05-04T20:15:40.051Z,81.60
2017-05-04T20:18:09.106Z,81.90
2017-05-04T20:20:38.179Z,82.10
2017-05-04T20:23:07.972Z,82.30
2017-05-04T20:25:37.794Z,83.00
2017-05-04T20:28:06.914Z,83.80
2017-05-04T20:30:35.963Z,83.70
2017-05-04T20:33:05.033Z,83.20
2017-05-04T20:35:34.113Z,83.30
2017-05-04T20:38:03.148Z,83.40
2017-05-04T20:40:32.213Z,82.20
2017-05-04T20:43:01.564Z,81.90
2017-05-04T20:45:30.909Z,82.60
2017-05-04T20:48:00.776Z,82.40
2017-05-04T20:50:30.695Z,83.00
2017-05-04T20:53:00.503Z,82.80
2017-05-04T20:55:30.288Z,83.40
2017-05-04T20:57:59.403Z,82.70
2017-05-04T21:00:29.232Z,83.80
2017-05-04T21:02:59.023Z,84.50
2017-05-04T21:05:28.814Z,85.00
2017-05-04T21:07:57.877Z,84.70
2017-05-04T21:10:26.945Z,85.00
2017-05-04T21:12:56.746Z,85.80
2017-05-04T21:15:26.526Z,87.40
2017-05-04T21:17:55.605Z,88.20
2017-05-04T21:20:24.629Z,89.20
2017-05-04T21:22:54.431Z,90.20
2017-05-04T21:25:23.476Z,90.20
2017-05-04T21:27:52.649Z,90.40
2017-05-04T21:30:22.424Z,90.30
2017-05-04T21:32:51.481Z,91.10
2017-05-04T21:35:20.548Z,90.90
2017-05-04T21:37:49.594Z,91.20
2017-05-04T21:40:18.738Z,90.70
2017-05-04T21:42:47.789Z,91.00
2017-05-04T21:45:17.196Z,91.50
2017-05-04T21:47:46.232Z,91.10
2017-05-04T21:50:16.025Z,91.40
2017-05-04T21:52:45.816Z,91.70
2017-05-04T21:55:14.881Z,91.50
2017-05-04T21:57:43.925Z,91.60
2017-05-04T22:00:14.573Z,91.40
2017-05-04T22:02:44.350Z,91.60
2017-05-04T22:05:13.481Z,92.10
2017-05-04T22:07:43.270Z,92.40
2017-05-04T22:10:12.333Z,92.50
2017-05-04T22:12:41.399Z,92.80
2017-05-04T22:15:10.455Z,92.50
2017-05-04T22:17:39.509Z,92.40
2017-05-04T22:20:08.561Z,92.60
2017-05-04T22:22:37.625Z,92.60
2017-05-04T22:25:06.689Z,92.30
2017-05-04T22:27:35.764Z,92.10
2017-05-04T22:30:04.800Z,91.70
2017-05-04T22:32:34.729Z,91.60
2017-05-04T22:35:04.529Z,92.20
2017-05-04T22:37:33.663Z,92.10
2017-05-04T22:40:03.458Z,92.50
2017-05-04T22:42:33.258Z,92.10
2017-05-04T22:45:02.378Z,91.90
2017-05-04T22:47:32.282Z,91.60
2017-05-04T22:50:02.073Z,91.30
2017-05-04T22:52:31.153Z,91.60
2017-05-04T22:55:00.293Z,91.90
2017-05-04T22:57:30.096Z,92.70
2017-05-04T22:59:59.118Z,93.00
2017-05-04T23:02:28.182Z,92.60
2017-05-04T23:04:57.967Z,93.00
2017-05-04T23:07:27.025Z,92.50
2017-05-04T23:09:56.073Z,92.40
2017-05-04T23:12:25.136Z,92.70
2017-05-04T23:14:54.174Z,92.70
2017-05-04T23:17:23.989Z,92.50
2017-05-04T23:19:53.773Z,93.20
2017-05-04T23:22:22.813Z,93.20
2017-05-04T23:24:51.981Z,93.50
2017-05-04T23:27:21.020Z,93.60
2017-05-04T23:29:50.173Z,93.50
2017-05-04T23:32:19.950Z,93.40
2017-05-04T23:34:48.993Z,93.40
2017-05-04T23:37:18.033Z,93.40
2017-05-04T23:39:47.086Z,93.50
2017-05-04T23:42:16.114Z,93.90
2017-05-04T23:44:45.165Z,93.70
2017-05-04T23:47:14.961Z,93.50
2017-05-04T23:49:43.992Z,93.70
2017-05-04T23:52:13.166Z,93.30
2017-05-04T23:54:42.962Z,93.60
2017-05-04T23:57:12.058Z,94.00
2017-05-04T23:59:41.841Z,93.40
